Clair Mel, Florida
Current Conditions -  °F | °C
As of 3:53 PM on Saturday 25 Oct 2014 (Local Time) from KTPA Reporting Station
Clear Clear  
Wind Chill: 79°   Ceiling: Unl
Heat Index: 79°   Visibility: 10mi
Dew Point: 51°   Wind: 13mph
Humidity: 38%   Direction: 340°NNW
Pressure: 29.95"   Gusts: NA
Location:  27.9256°N, 82.3736°W
Report Text: KTPA 251953Z 34011KT 10SM CLR 26/11 A2995 RMK AO2 SLP140 T02610106
Loading
Personal Weather Stations






























Interactive Weather Map
Tropical Storm Tracking
New forecast layout! Learn more

10-Day Weather Forecast

Advertisements
Track Severe Weather on mobile